sensor_id;sensor_type;location;lat;lon;timestamp;temperature;humidity
29431;DHT22;16404;49.902;10.074;2022-12-07T00:02:26;7.30;68.20
29431;DHT22;16404;49.902;10.074;2022-12-07T00:05:11;7.30;68.40
29431;DHT22;16404;49.902;10.074;2022-12-07T00:07:55;7.30;68.30
29431;DHT22;16404;49.902;10.074;2022-12-07T00:10:40;7.30;68.40
29431;DHT22;16404;49.902;10.074;2022-12-07T00:13:24;7.30;68.40
29431;DHT22;16404;49.902;10.074;2022-12-07T00:16:13;7.30;68.50
29431;DHT22;16404;49.902;10.074;2022-12-07T00:18:58;7.30;68.40
29431;DHT22;16404;49.902;10.074;2022-12-07T00:21:43;7.30;68.30
29431;DHT22;16404;49.902;10.074;2022-12-07T00:24:27;7.40;68.40
29431;DHT22;16404;49.902;10.074;2022-12-07T00:27:12;7.40;68.10
29431;DHT22;16404;49.902;10.074;2022-12-07T00:29:57;7.40;68.10
29431;DHT22;16404;49.902;10.074;2022-12-07T00:32:41;7.40;68.30
29431;DHT22;16404;49.902;10.074;2022-12-07T00:35:26;7.40;68.40
29431;DHT22;16404;49.902;10.074;2022-12-07T00:38:10;7.30;68.30
29431;DHT22;16404;49.902;10.074;2022-12-07T00:41:03;7.30;68.50
29431;DHT22;16404;49.902;10.074;2022-12-07T00:43:49;7.30;68.70
29431;DHT22;16404;49.902;10.074;2022-12-07T00:46:33;7.30;68.70
29431;DHT22;16404;49.902;10.074;2022-12-07T00:49:18;7.20;68.80
29431;DHT22;16404;49.902;10.074;2022-12-07T00:52:03;7.20;69.00
29431;DHT22;16404;49.902;10.074;2022-12-07T00:54:47;7.20;69.00
29431;DHT22;16404;49.902;10.074;2022-12-07T00:57:32;7.10;69.10
29431;DHT22;16404;49.902;10.074;2022-12-07T01:00:17;7.00;69.40
29431;DHT22;16404;49.902;10.074;2022-12-07T01:03:03;7.10;69.20
29431;DHT22;16404;49.902;10.074;2022-12-07T01:05:52;7.10;68.90
29431;DHT22;16404;49.902;10.074;2022-12-07T01:08:37;7.10;68.90
29431;DHT22;16404;49.902;10.074;2022-12-07T01:11:24;7.20;68.80
29431;DHT22;16404;49.902;10.074;2022-12-07T01:14:09;7.20;68.60
29431;DHT22;16404;49.902;10.074;2022-12-07T01:16:54;7.20;68.50
29431;DHT22;16404;49.902;10.074;2022-12-07T01:19:38;7.00;68.60
29431;DHT22;16404;49.902;10.074;2022-12-07T01:22:23;7.00;68.90
29431;DHT22;16404;49.902;10.074;2022-12-07T01:25:09;6.90;68.90
29431;DHT22;16404;49.902;10.074;2022-12-07T01:27:53;6.90;69.20
29431;DHT22;16404;49.902;10.074;2022-12-07T01:30:38;7.00;68.80
29431;DHT22;16404;49.902;10.074;2022-12-07T01:33:22;7.10;68.30
29431;DHT22;16404;49.902;10.074;2022-12-07T01:38:55;7.20;67.80
29431;DHT22;16404;49.902;10.074;2022-12-07T01:41:41;7.10;68.00
29431;DHT22;16404;49.902;10.074;2022-12-07T01:44:31;7.00;68.10
29431;DHT22;16404;49.902;10.074;2022-12-07T01:47:16;6.90;68.30
29431;DHT22;16404;49.902;10.074;2022-12-07T01:50:01;6.90;68.60
29431;DHT22;16404;49.902;10.074;2022-12-07T01:52:49;6.80;68.80
29431;DHT22;16404;49.902;10.074;2022-12-07T01:55:38;6.60;69.10
29431;DHT22;16404;49.902;10.074;2022-12-07T01:58:24;6.50;69.50
29431;DHT22;16404;49.902;10.074;2022-12-07T02:01:09;6.40;69.60
29431;DHT22;16404;49.902;10.074;2022-12-07T02:03:53;6.40;69.90
29431;DHT22;16404;49.902;10.074;2022-12-07T02:06:38;6.50;69.70
29431;DHT22;16404;49.902;10.074;2022-12-07T02:09:22;6.70;69.60
29431;DHT22;16404;49.902;10.074;2022-12-07T02:12:07;6.80;69.30
29431;DHT22;16404;49.902;10.074;2022-12-07T02:14:52;6.70;69.20
29431;DHT22;16404;49.902;10.074;2022-12-07T02:20:38;6.80;69.40
29431;DHT22;16404;49.902;10.074;2022-12-07T02:27:00;6.80;69.00
29431;DHT22;16404;49.902;10.074;2022-12-07T02:32:48;6.90;69.00
29431;DHT22;16404;49.902;10.074;2022-12-07T02:39:04;6.80;68.70
29431;DHT22;16404;49.902;10.074;2022-12-07T02:42:02;6.90;68.80
29431;DHT22;16404;49.902;10.074;2022-12-07T02:44:52;6.70;68.80
29431;DHT22;16404;49.902;10.074;2022-12-07T02:47:37;6.80;68.90
29431;DHT22;16404;49.902;10.074;2022-12-07T02:50:22;6.80;68.90
29431;DHT22;16404;49.902;10.074;2022-12-07T02:53:36;6.70;69.10
29431;DHT22;16404;49.902;10.074;2022-12-07T03:02:31;6.60;69.60
29431;DHT22;16404;49.902;10.074;2022-12-07T03:08:51;6.60;69.60
29431;DHT22;16404;49.902;10.074;2022-12-07T03:11:46;6.60;69.50
29431;DHT22;16404;49.902;10.074;2022-12-07T03:14:37;6.60;69.80
29431;DHT22;16404;49.902;10.074;2022-12-07T03:17:26;6.70;69.80
29431;DHT22;16404;49.902;10.074;2022-12-07T03:20:13;6.80;69.70
29431;DHT22;16404;49.902;10.074;2022-12-07T03:22:59;6.80;69.50
29431;DHT22;16404;49.902;10.074;2022-12-07T03:25:49;6.80;69.50
29431;DHT22;16404;49.902;10.074;2022-12-07T03:28:38;6.80;69.80
29431;DHT22;16404;49.902;10.074;2022-12-07T03:31:30;6.80;69.40
29431;DHT22;16404;49.902;10.074;2022-12-07T03:34:24;6.70;69.60
29431;DHT22;16404;49.902;10.074;2022-12-07T03:37:23;6.70;69.60
29431;DHT22;16404;49.902;10.074;2022-12-07T03:43:05;6.70;69.90
29431;DHT22;16404;49.902;10.074;2022-12-07T03:48:58;6.90;69.60
29431;DHT22;16404;49.902;10.074;2022-12-07T03:57:55;6.90;69.60
29431;DHT22;16404;49.902;10.074;2022-12-07T04:00:41;7.00;69.40
29431;DHT22;16404;49.902;10.074;2022-12-07T04:03:25;7.00;69.30
29431;DHT22;16404;49.902;10.074;2022-12-07T04:06:10;7.00;69.40
29431;DHT22;16404;49.902;10.074;2022-12-07T04:08:54;7.10;69.30
29431;DHT22;16404;49.902;10.074;2022-12-07T04:11:39;7.10;69.20
29431;DHT22;16404;49.902;10.074;2022-12-07T04:14:24;7.10;69.20
29431;DHT22;16404;49.902;10.074;2022-12-07T04:17:08;7.10;69.10
29431;DHT22;16404;49.902;10.074;2022-12-07T04:19:53;7.10;69.00
29431;DHT22;16404;49.902;10.074;2022-12-07T04:22:37;7.00;69.10
29431;DHT22;16404;49.902;10.074;2022-12-07T04:25:22;7.00;69.20
29431;DHT22;16404;49.902;10.074;2022-12-07T04:28:07;7.00;69.20
29431;DHT22;16404;49.902;10.074;2022-12-07T04:30:51;7.00;69.40
29431;DHT22;16404;49.902;10.074;2022-12-07T04:33:36;7.10;69.40
29431;DHT22;16404;49.902;10.074;2022-12-07T04:36:20;7.00;69.30
29431;DHT22;16404;49.902;10.074;2022-12-07T04:39:07;6.90;69.60
29431;DHT22;16404;49.902;10.074;2022-12-07T04:41:52;6.90;69.50
29431;DHT22;16404;49.902;10.074;2022-12-07T04:44:37;6.80;69.50
29431;DHT22;16404;49.902;10.074;2022-12-07T04:47:21;6.80;69.80
29431;DHT22;16404;49.902;10.074;2022-12-07T04:50:06;6.80;69.90
29431;DHT22;16404;49.902;10.074;2022-12-07T04:52:51;6.80;69.70
29431;DHT22;16404;49.902;10.074;2022-12-07T04:55:35;6.80;69.80
29431;DHT22;16404;49.902;10.074;2022-12-07T04:58:20;6.80;69.50
29431;DHT22;16404;49.902;10.074;2022-12-07T05:01:04;6.80;69.50
29431;DHT22;16404;49.902;10.074;2022-12-07T05:03:50;6.80;69.50
29431;DHT22;16404;49.902;10.074;2022-12-07T05:06:34;6.80;69.60
29431;DHT22;16404;49.902;10.074;2022-12-07T05:09:19;6.80;69.70
29431;DHT22;16404;49.902;10.074;2022-12-07T05:12:04;6.80;69.80
29431;DHT22;16404;49.902;10.074;2022-12-07T05:14:48;6.80;69.80
29431;DHT22;16404;49.902;10.074;2022-12-07T05:17:33;6.80;69.80
29431;DHT22;16404;49.902;10.074;2022-12-07T05:20:18;6.90;69.60
29431;DHT22;16404;49.902;10.074;2022-12-07T05:23:02;6.90;69.60
29431;DHT22;16404;49.902;10.074;2022-12-07T05:25:47;6.90;69.50
29431;DHT22;16404;49.902;10.074;2022-12-07T05:28:31;6.90;69.40
29431;DHT22;16404;49.902;10.074;2022-12-07T05:31:16;6.90;69.40
29431;DHT22;16404;49.902;10.074;2022-12-07T05:34:01;6.90;69.30
29431;DHT22;16404;49.902;10.074;2022-12-07T05:36:46;7.00;69.30
29431;DHT22;16404;49.902;10.074;2022-12-07T05:39:31;7.00;69.20
29431;DHT22;16404;49.902;10.074;2022-12-07T05:42:15;7.10;69.00
29431;DHT22;16404;49.902;10.074;2022-12-07T05:45:01;7.10;68.90
29431;DHT22;16404;49.902;10.074;2022-12-07T05:47:45;7.00;68.80
29431;DHT22;16404;49.902;10.074;2022-12-07T05:50:30;6.90;69.00
29431;DHT22;16404;49.902;10.074;2022-12-07T05:53:24;6.90;69.20
29431;DHT22;16404;49.902;10.074;2022-12-07T05:56:08;6.90;69.20
29431;DHT22;16404;49.902;10.074;2022-12-07T05:58:53;6.90;69.30
29431;DHT22;16404;49.902;10.074;2022-12-07T06:04:46;6.80;69.40
29431;DHT22;16404;49.902;10.074;2022-12-07T06:07:31;6.80;69.40
29431;DHT22;16404;49.902;10.074;2022-12-07T06:10:15;6.90;69.50
29431;DHT22;16404;49.902;10.074;2022-12-07T06:13:00;6.90;69.30
29431;DHT22;16404;49.902;10.074;2022-12-07T06:15:45;6.90;69.30
29431;DHT22;16404;49.902;10.074;2022-12-07T06:18:29;6.90;69.20
29431;DHT22;16404;49.902;10.074;2022-12-07T06:21:14;6.90;69.30
29431;DHT22;16404;49.902;10.074;2022-12-07T06:23:58;6.90;69.50
29431;DHT22;16404;49.902;10.074;2022-12-07T06:26:43;6.90;69.40
29431;DHT22;16404;49.902;10.074;2022-12-07T06:29:27;6.90;69.50
29431;DHT22;16404;49.902;10.074;2022-12-07T06:32:12;6.90;70.20
29431;DHT22;16404;49.902;10.074;2022-12-07T06:34:57;6.90;69.50
29431;DHT22;16404;49.902;10.074;2022-12-07T06:37:41;6.90;69.60
29431;DHT22;16404;49.902;10.074;2022-12-07T06:40:26;6.90;69.70
29431;DHT22;16404;49.902;10.074;2022-12-07T06:43:10;6.90;69.60
29431;DHT22;16404;49.902;10.074;2022-12-07T06:45:55;7.00;69.70
29431;DHT22;16404;49.902;10.074;2022-12-07T06:48:40;7.00;69.50
29431;DHT22;16404;49.902;10.074;2022-12-07T06:51:25;7.10;69.40
29431;DHT22;16404;49.902;10.074;2022-12-07T06:54:11;7.20;69.10
29431;DHT22;16404;49.902;10.074;2022-12-07T06:56:56;7.20;68.80
29431;DHT22;16404;49.902;10.074;2022-12-07T06:59:41;7.20;69.00
29431;DHT22;16404;49.902;10.074;2022-12-07T07:02:25;7.20;69.10
29431;DHT22;16404;49.902;10.074;2022-12-07T07:05:10;7.30;69.00
29431;DHT22;16404;49.902;10.074;2022-12-07T07:07:54;7.30;69.10
29431;DHT22;16404;49.902;10.074;2022-12-07T07:10:39;7.30;69.10
29431;DHT22;16404;49.902;10.074;2022-12-07T07:13:24;7.30;69.10
29431;DHT22;16404;49.902;10.074;2022-12-07T07:16:08;7.30;69.20
29431;DHT22;16404;49.902;10.074;2022-12-07T07:18:53;7.30;69.10
29431;DHT22;16404;49.902;10.074;2022-12-07T07:21:38;7.30;69.20
29431;DHT22;16404;49.902;10.074;2022-12-07T07:24:22;7.30;69.10
29431;DHT22;16404;49.902;10.074;2022-12-07T07:27:07;7.30;69.20
29431;DHT22;16404;49.902;10.074;2022-12-07T07:29:51;7.30;69.40
29431;DHT22;16404;49.902;10.074;2022-12-07T07:32:36;7.40;69.40
29431;DHT22;16404;49.902;10.074;2022-12-07T07:35:20;7.50;69.00
29431;DHT22;16404;49.902;10.074;2022-12-07T07:38:06;7.60;68.80
29431;DHT22;16404;49.902;10.074;2022-12-07T07:40:58;7.50;69.50
29431;DHT22;16404;49.902;10.074;2022-12-07T07:43:43;7.50;69.10
29431;DHT22;16404;49.902;10.074;2022-12-07T07:46:30;7.50;69.20
29431;DHT22;16404;49.902;10.074;2022-12-07T08:06:51;7.30;69.50
29431;DHT22;16404;49.902;10.074;2022-12-07T08:19:17;7.30;70.00
29431;DHT22;16404;49.902;10.074;2022-12-07T08:30:45;7.50;69.70
29431;DHT22;16404;49.902;10.074;2022-12-07T08:39:15;7.60;69.50
29431;DHT22;16404;49.902;10.074;2022-12-07T08:49:44;7.50;70.00
29431;DHT22;16404;49.902;10.074;2022-12-07T09:01:56;7.60;70.10
29431;DHT22;16404;49.902;10.074;2022-12-07T09:13:07;7.70;70.20
29431;DHT22;16404;49.902;10.074;2022-12-07T09:20:53;7.90;69.80
29431;DHT22;16404;49.902;10.074;2022-12-07T09:28:55;8.10;69.50
29431;DHT22;16404;49.902;10.074;2022-12-07T09:31:39;8.20;69.00
29431;DHT22;16404;49.902;10.074;2022-12-07T09:34:24;8.20;69.10
29431;DHT22;16404;49.902;10.074;2022-12-07T09:37:10;8.20;70.00
29431;DHT22;16404;49.902;10.074;2022-12-07T09:39:55;8.30;69.50
29431;DHT22;16404;49.902;10.074;2022-12-07T09:42:43;8.40;69.30
29431;DHT22;16404;49.902;10.074;2022-12-07T09:45:36;8.40;69.00
29431;DHT22;16404;49.902;10.074;2022-12-07T09:48:32;8.40;69.10
29431;DHT22;16404;49.902;10.074;2022-12-07T09:51:20;8.40;69.10
29431;DHT22;16404;49.902;10.074;2022-12-07T09:54:04;8.40;69.10
29431;DHT22;16404;49.902;10.074;2022-12-07T09:56:49;8.40;69.10
29431;DHT22;16404;49.902;10.074;2022-12-07T09:59:34;8.40;69.30
29431;DHT22;16404;49.902;10.074;2022-12-07T10:02:38;8.40;69.30
29431;DHT22;16404;49.902;10.074;2022-12-07T10:05:38;8.50;69.50
29431;DHT22;16404;49.902;10.074;2022-12-07T10:08:25;8.60;69.50
29431;DHT22;16404;49.902;10.074;2022-12-07T10:11:10;8.60;69.20
29431;DHT22;16404;49.902;10.074;2022-12-07T10:14:11;8.60;69.10
29431;DHT22;16404;49.902;10.074;2022-12-07T10:16:56;8.60;69.10
29431;DHT22;16404;49.902;10.074;2022-12-07T10:19:40;8.70;69.10
29431;DHT22;16404;49.902;10.074;2022-12-07T10:22:25;8.70;69.00
29431;DHT22;16404;49.902;10.074;2022-12-07T10:25:30;8.70;69.20
29431;DHT22;16404;49.902;10.074;2022-12-07T10:28:18;8.70;69.20
29431;DHT22;16404;49.902;10.074;2022-12-07T10:31:18;8.90;68.90
29431;DHT22;16404;49.902;10.074;2022-12-07T10:34:08;9.00;68.70
29431;DHT22;16404;49.902;10.074;2022-12-07T10:40:18;9.10;68.20
29431;DHT22;16404;49.902;10.074;2022-12-07T10:46:20;9.30;67.60
29431;DHT22;16404;49.902;10.074;2022-12-07T10:53:04;9.20;67.70
29431;DHT22;16404;49.902;10.074;2022-12-07T10:55:41;9.20;67.90
29431;DHT22;16404;49.902;10.074;2022-12-07T11:07:28;9.50;67.50
29431;DHT22;16404;49.902;10.074;2022-12-07T11:10:25;9.60;67.20
29431;DHT22;16404;49.902;10.074;2022-12-07T11:22:30;9.80;67.00
29431;DHT22;16404;49.902;10.074;2022-12-07T11:25:20;9.80;66.80
29431;DHT22;16404;49.902;10.074;2022-12-07T11:28:28;10.00;66.60
29431;DHT22;16404;49.902;10.074;2022-12-07T11:34:24;10.00;66.20
29431;DHT22;16404;49.902;10.074;2022-12-07T11:37:21;10.00;66.30
29431;DHT22;16404;49.902;10.074;2022-12-07T11:40:24;9.90;66.60
29431;DHT22;16404;49.902;10.074;2022-12-07T11:43:26;9.90;66.50
29431;DHT22;16404;49.902;10.074;2022-12-07T11:55:52;10.00;66.50
29431;DHT22;16404;49.902;10.074;2022-12-07T12:02:18;10.10;66.00
29431;DHT22;16404;49.902;10.074;2022-12-07T12:05:16;10.10;65.80
29431;DHT22;16404;49.902;10.074;2022-12-07T12:08:15;10.10;65.90
29431;DHT22;16404;49.902;10.074;2022-12-07T12:20:30;10.20;64.60
29431;DHT22;16404;49.902;10.074;2022-12-07T12:23:22;10.30;64.50
29431;DHT22;16404;49.902;10.074;2022-12-07T12:26:15;10.40;64.20
29431;DHT22;16404;49.902;10.074;2022-12-07T12:29:05;10.30;64.10
29431;DHT22;16404;49.902;10.074;2022-12-07T12:32:12;10.30;64.50
29431;DHT22;16404;49.902;10.074;2022-12-07T12:38:31;10.30;64.50
29431;DHT22;16404;49.902;10.074;2022-12-07T12:47:43;10.20;64.40
29431;DHT22;16404;49.902;10.074;2022-12-07T12:50:37;10.20;64.60
29431;DHT22;16404;49.902;10.074;2022-12-07T12:53:24;10.30;64.50
29431;DHT22;16404;49.902;10.074;2022-12-07T12:56:39;10.20;64.40
29431;DHT22;16404;49.902;10.074;2022-12-07T13:08:17;10.20;64.60
29431;DHT22;16404;49.902;10.074;2022-12-07T13:11:28;10.20;63.90
29431;DHT22;16404;49.902;10.074;2022-12-07T13:29:19;10.00;63.90
29431;DHT22;16404;49.902;10.074;2022-12-07T13:32:26;10.00;63.60
29431;DHT22;16404;49.902;10.074;2022-12-07T13:38:31;10.20;63.60
29431;DHT22;16404;49.902;10.074;2022-12-07T13:41:18;10.20;63.50
29431;DHT22;16404;49.902;10.074;2022-12-07T13:44:11;10.20;63.40
29431;DHT22;16404;49.902;10.074;2022-12-07T13:49:58;10.10;63.50
29431;DHT22;16404;49.902;10.074;2022-12-07T13:52:45;10.00;63.60
29431;DHT22;16404;49.902;10.074;2022-12-07T13:55:30;10.00;63.60
29431;DHT22;16404;49.902;10.074;2022-12-07T13:58:15;9.90;63.60
29431;DHT22;16404;49.902;10.074;2022-12-07T14:01:00;9.90;63.60
29431;DHT22;16404;49.902;10.074;2022-12-07T14:03:46;9.80;63.60
29431;DHT22;16404;49.902;10.074;2022-12-07T14:11:32;9.80;63.20
29431;DHT22;16404;49.902;10.074;2022-12-07T14:14:25;9.70;63.40
29431;DHT22;16404;49.902;10.074;2022-12-07T14:17:20;9.60;63.70
29431;DHT22;16404;49.902;10.074;2022-12-07T14:20:34;9.50;63.80
29431;DHT22;16404;49.902;10.074;2022-12-07T14:23:25;9.40;64.10
29431;DHT22;16404;49.902;10.074;2022-12-07T14:26:15;9.30;64.10
29431;DHT22;16404;49.902;10.074;2022-12-07T14:32:34;9.10;64.50
29431;DHT22;16404;49.902;10.074;2022-12-07T14:35:19;9.10;64.50
29431;DHT22;16404;49.902;10.074;2022-12-07T14:38:04;9.00;64.40
29431;DHT22;16404;49.902;10.074;2022-12-07T14:40:49;8.90;64.50
29431;DHT22;16404;49.902;10.074;2022-12-07T14:43:33;8.90;64.50
29431;DHT22;16404;49.902;10.074;2022-12-07T14:46:18;9.00;64.60
29431;DHT22;16404;49.902;10.074;2022-12-07T14:49:02;9.00;64.30
29431;DHT22;16404;49.902;10.074;2022-12-07T14:51:47;9.00;64.30
29431;DHT22;16404;49.902;10.074;2022-12-07T14:54:32;9.00;64.00
29431;DHT22;16404;49.902;10.074;2022-12-07T14:57:17;9.10;64.00
29431;DHT22;16404;49.902;10.074;2022-12-07T15:00:02;9.00;63.70
29431;DHT22;16404;49.902;10.074;2022-12-07T15:02:47;8.80;64.10
29431;DHT22;16404;49.902;10.074;2022-12-07T15:05:32;8.60;64.50
29431;DHT22;16404;49.902;10.074;2022-12-07T15:08:18;8.40;64.80
29431;DHT22;16404;49.902;10.074;2022-12-07T15:11:02;8.30;65.20
29431;DHT22;16404;49.902;10.074;2022-12-07T15:13:47;8.10;66.00
29431;DHT22;16404;49.902;10.074;2022-12-07T15:16:51;8.20;65.50
29431;DHT22;16404;49.902;10.074;2022-12-07T15:19:35;8.10;65.30
29431;DHT22;16404;49.902;10.074;2022-12-07T15:22:20;8.10;65.50
29431;DHT22;16404;49.902;10.074;2022-12-07T15:25:05;8.20;65.30
29431;DHT22;16404;49.902;10.074;2022-12-07T15:27:50;8.10;65.20
29431;DHT22;16404;49.902;10.074;2022-12-07T15:30:37;8.00;65.40
29431;DHT22;16404;49.902;10.074;2022-12-07T15:33:22;8.00;65.50
29431;DHT22;16404;49.902;10.074;2022-12-07T15:36:24;7.90;65.50
29431;DHT22;16404;49.902;10.074;2022-12-07T15:39:10;7.80;65.70
29431;DHT22;16404;49.902;10.074;2022-12-07T15:41:54;7.80;66.00
29431;DHT22;16404;49.902;10.074;2022-12-07T15:44:39;7.70;66.10
29431;DHT22;16404;49.902;10.074;2022-12-07T15:47:43;7.80;66.20
29431;DHT22;16404;49.902;10.074;2022-12-07T15:50:31;7.70;66.20
29431;DHT22;16404;49.902;10.074;2022-12-07T15:53:18;7.70;66.40
29431;DHT22;16404;49.902;10.074;2022-12-07T15:56:08;7.70;66.60
29431;DHT22;16404;49.902;10.074;2022-12-07T15:58:56;7.70;66.80
29431;DHT22;16404;49.902;10.074;2022-12-07T16:01:44;7.80;66.70
29431;DHT22;16404;49.902;10.074;2022-12-07T16:04:29;7.90;66.60
29431;DHT22;16404;49.902;10.074;2022-12-07T16:07:14;8.00;66.90
29431;DHT22;16404;49.902;10.074;2022-12-07T16:10:00;8.10;65.80
29431;DHT22;16404;49.902;10.074;2022-12-07T16:12:44;8.30;65.40
29431;DHT22;16404;49.902;10.074;2022-12-07T16:15:29;8.20;65.20
29431;DHT22;16404;49.902;10.074;2022-12-07T16:18:14;8.20;65.20
29431;DHT22;16404;49.902;10.074;2022-12-07T16:20:58;8.10;65.30
29431;DHT22;16404;49.902;10.074;2022-12-07T16:23:44;7.90;65.60
29431;DHT22;16404;49.902;10.074;2022-12-07T16:26:28;7.70;66.20
29431;DHT22;16404;49.902;10.074;2022-12-07T16:29:13;7.70;66.40
29431;DHT22;16404;49.902;10.074;2022-12-07T16:31:58;7.70;66.30
29431;DHT22;16404;49.902;10.074;2022-12-07T16:34:42;7.60;66.30
29431;DHT22;16404;49.902;10.074;2022-12-07T16:37:27;7.50;66.60
29431;DHT22;16404;49.902;10.074;2022-12-07T16:40:12;7.50;66.70
29431;DHT22;16404;49.902;10.074;2022-12-07T16:42:56;7.40;67.00
29431;DHT22;16404;49.902;10.074;2022-12-07T16:45:40;7.30;67.20
29431;DHT22;16404;49.902;10.074;2022-12-07T16:48:25;7.30;67.40
29431;DHT22;16404;49.902;10.074;2022-12-07T16:51:12;7.20;67.60
29431;DHT22;16404;49.902;10.074;2022-12-07T16:53:57;7.10;68.10
29431;DHT22;16404;49.902;10.074;2022-12-07T16:56:42;7.00;68.20
29431;DHT22;16404;49.902;10.074;2022-12-07T16:59:26;6.90;68.50
29431;DHT22;16404;49.902;10.074;2022-12-07T17:02:20;6.90;68.70
29431;DHT22;16404;49.902;10.074;2022-12-07T17:05:04;7.00;68.80
29431;DHT22;16404;49.902;10.074;2022-12-07T17:07:50;7.00;68.40
29431;DHT22;16404;49.902;10.074;2022-12-07T17:10:37;6.90;68.60
29431;DHT22;16404;49.902;10.074;2022-12-07T17:13:22;6.80;69.00
29431;DHT22;16404;49.902;10.074;2022-12-07T17:16:25;6.70;69.20
29431;DHT22;16404;49.902;10.074;2022-12-07T17:19:13;6.70;69.20
29431;DHT22;16404;49.902;10.074;2022-12-07T17:22:05;6.60;69.30
29431;DHT22;16404;49.902;10.074;2022-12-07T17:24:55;6.60;69.50
29431;DHT22;16404;49.902;10.074;2022-12-07T17:27:40;6.50;69.70
29431;DHT22;16404;49.902;10.074;2022-12-07T17:30:27;6.50;69.50
29431;DHT22;16404;49.902;10.074;2022-12-07T17:33:11;6.50;69.20
29431;DHT22;16404;49.902;10.074;2022-12-07T17:36:00;6.50;69.00
29431;DHT22;16404;49.902;10.074;2022-12-07T17:38:45;6.50;69.10
29431;DHT22;16404;49.902;10.074;2022-12-07T17:41:31;6.40;69.10
29431;DHT22;16404;49.902;10.074;2022-12-07T17:44:34;6.40;69.20
29431;DHT22;16404;49.902;10.074;2022-12-07T17:47:19;6.40;69.00
29431;DHT22;16404;49.902;10.074;2022-12-07T17:50:06;6.40;69.30
29431;DHT22;16404;49.902;10.074;2022-12-07T17:52:51;6.30;69.50
29431;DHT22;16404;49.902;10.074;2022-12-07T17:55:56;6.30;69.70
29431;DHT22;16404;49.902;10.074;2022-12-07T17:58:40;6.30;69.90
29431;DHT22;16404;49.902;10.074;2022-12-07T18:01:26;6.40;69.70
29431;DHT22;16404;49.902;10.074;2022-12-07T18:04:11;6.60;69.50
29431;DHT22;16404;49.902;10.074;2022-12-07T18:06:56;6.70;69.00
29431;DHT22;16404;49.902;10.074;2022-12-07T18:09:40;6.70;69.00
29431;DHT22;16404;49.902;10.074;2022-12-07T18:12:27;6.80;68.90
29431;DHT22;16404;49.902;10.074;2022-12-07T18:15:11;6.90;68.60
29431;DHT22;16404;49.902;10.074;2022-12-07T18:17:56;7.00;68.50
29431;DHT22;16404;49.902;10.074;2022-12-07T18:20:41;6.90;68.60
29431;DHT22;16404;49.902;10.074;2022-12-07T18:23:25;6.90;68.90
29431;DHT22;16404;49.902;10.074;2022-12-07T18:26:11;6.90;68.90
29431;DHT22;16404;49.902;10.074;2022-12-07T18:29:00;7.00;68.90
29431;DHT22;16404;49.902;10.074;2022-12-07T18:31:45;7.00;68.80
29431;DHT22;16404;49.902;10.074;2022-12-07T18:34:33;7.00;68.80
29431;DHT22;16404;49.902;10.074;2022-12-07T18:37:17;6.90;69.10
29431;DHT22;16404;49.902;10.074;2022-12-07T18:40:02;6.90;69.20
29431;DHT22;16404;49.902;10.074;2022-12-07T18:42:46;6.90;69.30
29431;DHT22;16404;49.902;10.074;2022-12-07T18:45:35;6.90;69.20
29431;DHT22;16404;49.902;10.074;2022-12-07T18:48:20;6.90;69.30
29431;DHT22;16404;49.902;10.074;2022-12-07T18:51:06;6.90;69.40
29431;DHT22;16404;49.902;10.074;2022-12-07T18:53:51;6.80;69.70
29431;DHT22;16404;49.902;10.074;2022-12-07T18:56:36;6.70;69.90
29431;DHT22;16404;49.902;10.074;2022-12-07T18:59:20;6.80;70.10
29431;DHT22;16404;49.902;10.074;2022-12-07T19:02:23;6.70;70.00
29431;DHT22;16404;49.902;10.074;2022-12-07T19:05:08;6.80;70.00
29431;DHT22;16404;49.902;10.074;2022-12-07T19:07:53;6.80;70.10
29431;DHT22;16404;49.902;10.074;2022-12-07T19:10:37;6.80;69.90
29431;DHT22;16404;49.902;10.074;2022-12-07T19:13:22;6.70;70.10
29431;DHT22;16404;49.902;10.074;2022-12-07T19:16:07;6.60;70.40
29431;DHT22;16404;49.902;10.074;2022-12-07T19:18:51;6.60;70.70
29431;DHT22;16404;49.902;10.074;2022-12-07T19:21:36;6.70;70.80
29431;DHT22;16404;49.902;10.074;2022-12-07T19:24:21;6.70;70.60
29431;DHT22;16404;49.902;10.074;2022-12-07T19:27:06;6.80;70.70
29431;DHT22;16404;49.902;10.074;2022-12-07T19:29:51;6.80;70.60
29431;DHT22;16404;49.902;10.074;2022-12-07T19:32:36;6.80;70.50
29431;DHT22;16404;49.902;10.074;2022-12-07T19:35:21;6.80;70.70
29431;DHT22;16404;49.902;10.074;2022-12-07T19:38:05;6.90;70.50
29431;DHT22;16404;49.902;10.074;2022-12-07T19:40:50;6.90;70.40
29431;DHT22;16404;49.902;10.074;2022-12-07T19:43:35;7.00;70.30
29431;DHT22;16404;49.902;10.074;2022-12-07T19:46:20;7.20;70.00
29431;DHT22;16404;49.902;10.074;2022-12-07T19:49:04;7.20;69.50
29431;DHT22;16404;49.902;10.074;2022-12-07T19:51:52;7.40;69.40
29431;DHT22;16404;49.902;10.074;2022-12-07T19:54:37;7.40;69.10
29431;DHT22;16404;49.902;10.074;2022-12-07T19:57:29;7.50;69.10
29431;DHT22;16404;49.902;10.074;2022-12-07T20:03:56;7.40;69.10
29431;DHT22;16404;49.902;10.074;2022-12-07T20:06:42;7.30;69.30
29431;DHT22;16404;49.902;10.074;2022-12-07T20:09:26;7.20;69.80
29431;DHT22;16404;49.902;10.074;2022-12-07T20:12:11;7.00;70.10
29431;DHT22;16404;49.902;10.074;2022-12-07T20:15:14;6.90;70.60
29431;DHT22;16404;49.902;10.074;2022-12-07T20:17:59;6.80;71.10
29431;DHT22;16404;49.902;10.074;2022-12-07T20:20:55;6.70;71.30
29431;DHT22;16404;49.902;10.074;2022-12-07T20:23:40;6.60;71.60
29431;DHT22;16404;49.902;10.074;2022-12-07T20:26:25;6.60;71.60
29431;DHT22;16404;49.902;10.074;2022-12-07T20:29:12;6.60;72.60
29431;DHT22;16404;49.902;10.074;2022-12-07T20:31:59;6.60;71.80
29431;DHT22;16404;49.902;10.074;2022-12-07T20:34:44;6.50;71.80
29431;DHT22;16404;49.902;10.074;2022-12-07T20:37:30;6.50;71.90
29431;DHT22;16404;49.902;10.074;2022-12-07T20:40:14;6.50;72.00
29431;DHT22;16404;49.902;10.074;2022-12-07T20:42:59;6.50;72.00
29431;DHT22;16404;49.902;10.074;2022-12-07T20:45:45;6.50;72.00
29431;DHT22;16404;49.902;10.074;2022-12-07T20:48:32;6.50;71.90
29431;DHT22;16404;49.902;10.074;2022-12-07T20:51:20;6.60;71.80
29431;DHT22;16404;49.902;10.074;2022-12-07T20:54:05;6.70;71.70
29431;DHT22;16404;49.902;10.074;2022-12-07T20:56:49;6.80;71.30
29431;DHT22;16404;49.902;10.074;2022-12-07T20:59:33;6.90;70.90
29431;DHT22;16404;49.902;10.074;2022-12-07T21:02:18;7.00;70.60
29431;DHT22;16404;49.902;10.074;2022-12-07T21:05:03;7.10;70.20
29431;DHT22;16404;49.902;10.074;2022-12-07T21:07:55;7.10;70.10
29431;DHT22;16404;49.902;10.074;2022-12-07T21:10:43;7.10;70.20
29431;DHT22;16404;49.902;10.074;2022-12-07T21:13:30;7.00;70.20
29431;DHT22;16404;49.902;10.074;2022-12-07T21:16:18;7.10;70.10
29431;DHT22;16404;49.902;10.074;2022-12-07T21:19:04;7.20;69.80
29431;DHT22;16404;49.902;10.074;2022-12-07T21:22:12;7.30;69.40